ニジネヴァルトフスク の空港の天気 - METARとTAF

Nizhnevartovsk ( USNN / NJC ) - ロシア ニジネヴァルトフスク
飛行場実況気象(Metar)
観測時間10/16 11:30 YEKT (10/16 06:30 UTC)
風向・風速南南西 4m/s
視程10km以上
天気現象
-
気温3℃
湿度70%
気圧1021hPa
METARUSNN 160630Z 21004MPS 9999 03/M02 Q1021 R21/0///65 NOSIG RMK QFE761
過去の天気等 Google飛行場航空写真 Wunderground天気予報

過去48時間のMETAR

飛行場予報(TAF)
発表時間: 10/16 10:00 YEKT (10/16 05:00 UTC)
予報対象時間: 16日11時 YEKT ~ 17日11時 YEKT
風向・風速南西 3m/s
視程10km以上
全天の4割程度の雲 雲底高度 910m
16日13時 YEKT ~ 16日17時 YEKT に一時的に
風向・風速南南西 6m/s 瞬間風速 13m/s
TAF USNN 160500Z 1606/1706 22003MPS 9999 SCT030
TEMPO 1608/1612 21006G13MPS